sensor_id;sensor_type;location;lat;lon;timestamp;pressure;altitude;pressure_sealevel;temperature;humidity
74921;BME280;63483;47.384;8.860;2023-05-07T00:01:15;94463.78;;;13.46;42.47
74921;BME280;63483;47.384;8.860;2023-05-07T00:03:40;94463.38;;;13.49;42.26
74921;BME280;63483;47.384;8.860;2023-05-07T00:06:05;94460.97;;;13.48;42.24
74921;BME280;63483;47.384;8.860;2023-05-07T00:08:31;94465.41;;;13.47;42.41
74921;BME280;63483;47.384;8.860;2023-05-07T00:10:56;94468.66;;;13.49;42.51
74921;BME280;63483;47.384;8.860;2023-05-07T00:13:22;94467.44;;;13.45;42.51
74921;BME280;63483;47.384;8.860;2023-05-07T00:15:47;94467.03;;;13.42;42.59
74921;BME280;63483;47.384;8.860;2023-05-07T00:18:12;94466.84;;;13.43;42.47
74921;BME280;63483;47.384;8.860;2023-05-07T00:20:38;94471.06;;;13.44;42.44
74921;BME280;63483;47.384;8.860;2023-05-07T00:23:03;94470.25;;;13.44;42.53
74921;BME280;63483;47.384;8.860;2023-05-07T00:25:28;94478.94;;;13.44;42.48
74921;BME280;63483;47.384;8.860;2023-05-07T00:27:54;94474.31;;;13.40;42.50
74921;BME280;63483;47.384;8.860;2023-05-07T00:30:19;94472.28;;;13.35;42.79
74921;BME280;63483;47.384;8.860;2023-05-07T00:32:45;94470.66;;;13.34;42.81
74921;BME280;63483;47.384;8.860;2023-05-07T00:35:11;94469.06;;;13.33;42.63
74921;BME280;63483;47.384;8.860;2023-05-07T00:37:36;94461.75;;;13.28;42.65
74921;BME280;63483;47.384;8.860;2023-05-07T00:40:01;94456.09;;;13.25;42.83
74921;BME280;63483;47.384;8.860;2023-05-07T00:42:30;94456.09;;;13.25;42.93
74921;BME280;63483;47.384;8.860;2023-05-07T00:44:57;94451.66;;;13.25;42.85
74921;BME280;63483;47.384;8.860;2023-05-07T00:47:22;94450.81;;;13.25;42.77
74921;BME280;63483;47.384;8.860;2023-05-07T00:49:48;94451.81;;;13.24;43.04
74921;BME280;63483;47.384;8.860;2023-05-07T00:52:16;94450.03;;;13.24;42.96
74921;BME280;63483;47.384;8.860;2023-05-07T00:54:41;94450.63;;;13.20;43.02
74921;BME280;63483;47.384;8.860;2023-05-07T00:57:09;94448.19;;;13.18;43.08
74921;BME280;63483;47.384;8.860;2023-05-07T00:59:34;94452.63;;;13.17;43.03
74921;BME280;63483;47.384;8.860;2023-05-07T01:02:00;94455.66;;;13.14;42.98
74921;BME280;63483;47.384;8.860;2023-05-07T01:04:26;94447.97;;;13.13;42.92
74921;BME280;63483;47.384;8.860;2023-05-07T01:06:52;94444.94;;;13.09;43.15
74921;BME280;63483;47.384;8.860;2023-05-07T01:09:19;94447.59;;;13.09;43.28
74921;BME280;63483;47.384;8.860;2023-05-07T01:11:47;94451.22;;;13.08;43.04
74921;BME280;63483;47.384;8.860;2023-05-07T01:14:13;94443.31;;;13.08;43.13
74921;BME280;63483;47.384;8.860;2023-05-07T01:16:38;94451.41;;;13.07;43.00
74921;BME280;63483;47.384;8.860;2023-05-07T01:19:06;94451.22;;;13.02;43.03
74921;BME280;63483;47.384;8.860;2023-05-07T01:21:33;94449.16;;;12.97;42.97
74921;BME280;63483;47.384;8.860;2023-05-07T01:24:00;94450.00;;;12.97;43.05
74921;BME280;63483;47.384;8.860;2023-05-07T01:26:25;94448.75;;;12.93;42.99
74921;BME280;63483;47.384;8.860;2023-05-07T01:28:51;94453.00;;;12.88;43.23
74921;BME280;63483;47.384;8.860;2023-05-07T01:31:16;94451.34;;;12.87;43.29
74921;BME280;63483;47.384;8.860;2023-05-07T01:33:44;94460.03;;;12.80;43.38
74921;BME280;63483;47.384;8.860;2023-05-07T01:36:11;94457.19;;;12.75;43.40
74921;BME280;63483;47.384;8.860;2023-05-07T01:38:37;94448.66;;;12.73;43.44
74921;BME280;63483;47.384;8.860;2023-05-07T01:41:03;94452.94;;;12.74;43.46
74921;BME280;63483;47.384;8.860;2023-05-07T01:43:30;94446.66;;;12.75;43.55
74921;BME280;63483;47.384;8.860;2023-05-07T01:45:57;94451.94;;;12.75;43.52
74921;BME280;63483;47.384;8.860;2023-05-07T01:48:24;94443.22;;;12.75;43.55
74921;BME280;63483;47.384;8.860;2023-05-07T01:50:50;94451.09;;;12.75;43.51
74921;BME280;63483;47.384;8.860;2023-05-07T01:53:16;94456.75;;;12.72;43.55
74921;BME280;63483;47.384;8.860;2023-05-07T01:55:41;94453.13;;;12.66;43.63
74921;BME280;63483;47.384;8.860;2023-05-07T01:58:07;94446.44;;;12.63;43.53
74921;BME280;63483;47.384;8.860;2023-05-07T02:00:32;94445.81;;;12.61;43.22
74921;BME280;63483;47.384;8.860;2023-05-07T02:02:57;94450.84;;;12.56;43.24
74921;BME280;63483;47.384;8.860;2023-05-07T02:05:23;94449.41;;;12.54;43.49
74921;BME280;63483;47.384;8.860;2023-05-07T02:07:48;94449.63;;;12.52;43.63
74921;BME280;63483;47.384;8.860;2023-05-07T02:10:14;94458.50;;;12.51;43.44
74921;BME280;63483;47.384;8.860;2023-05-07T02:12:39;94455.84;;;12.44;43.72
74921;BME280;63483;47.384;8.860;2023-05-07T02:15:05;94451.00;;;12.41;43.67
74921;BME280;63483;47.384;8.860;2023-05-07T02:17:30;94448.97;;;12.43;43.86
74921;BME280;63483;47.384;8.860;2023-05-07T02:19:58;94448.78;;;12.45;43.90
74921;BME280;63483;47.384;8.860;2023-05-07T02:22:23;94451.00;;;12.41;43.73
74921;BME280;63483;47.384;8.860;2023-05-07T02:24:48;94452.00;;;12.40;43.28
74921;BME280;63483;47.384;8.860;2023-05-07T02:27:14;94450.56;;;12.38;43.66
74921;BME280;63483;47.384;8.860;2023-05-07T02:29:39;94448.13;;;12.36;43.81
74921;BME280;63483;47.384;8.860;2023-05-07T02:32:05;94448.53;;;12.33;43.67
74921;BME280;63483;47.384;8.860;2023-05-07T02:34:30;94443.28;;;12.33;43.73
74921;BME280;63483;47.384;8.860;2023-05-07T02:36:55;94447.13;;;12.30;43.62
74921;BME280;63483;47.384;8.860;2023-05-07T02:39:21;94447.13;;;12.30;43.68
74921;BME280;63483;47.384;8.860;2023-05-07T02:41:46;94457.81;;;12.29;43.62
74921;BME280;63483;47.384;8.860;2023-05-07T02:44:11;94452.94;;;12.26;43.88
74921;BME280;63483;47.384;8.860;2023-05-07T02:46:37;94461.00;;;12.24;43.74
74921;BME280;63483;47.384;8.860;2023-05-07T02:49:02;94455.34;;;12.21;43.89
74921;BME280;63483;47.384;8.860;2023-05-07T02:51:27;94458.97;;;12.20;43.89
74921;BME280;63483;47.384;8.860;2023-05-07T02:53:53;94457.72;;;12.16;43.95
74921;BME280;63483;47.384;8.860;2023-05-07T02:56:18;94464.00;;;12.15;43.28
74921;BME280;63483;47.384;8.860;2023-05-07T02:58:43;94466.63;;;12.15;43.75
74921;BME280;63483;47.384;8.860;2023-05-07T03:01:09;94457.50;;;12.10;43.66
74921;BME280;63483;47.384;8.860;2023-05-07T03:03:35;94457.50;;;12.10;43.79
74921;BME280;63483;47.384;8.860;2023-05-07T03:06:00;94460.53;;;12.07;43.82
74921;BME280;63483;47.384;8.860;2023-05-07T03:08:26;94459.94;;;12.05;43.84
74921;BME280;63483;47.384;8.860;2023-05-07T03:10:51;94458.69;;;12.01;43.91
74921;BME280;63483;47.384;8.860;2023-05-07T03:13:17;94465.31;;;11.97;43.89
74921;BME280;63483;47.384;8.860;2023-05-07T03:15:42;94454.22;;;11.95;43.89
74921;BME280;63483;47.384;8.860;2023-05-07T03:18:08;94469.53;;;11.91;44.05
74921;BME280;63483;47.384;8.860;2023-05-07T03:20:33;94462.44;;;11.92;43.97
74921;BME280;63483;47.384;8.860;2023-05-07T03:22:59;94452.72;;;11.86;43.96
74921;BME280;63483;47.384;8.860;2023-05-07T03:25:24;94459.16;;;11.83;44.03
74921;BME280;63483;47.384;8.860;2023-05-07T03:27:50;94454.25;;;11.80;43.94
74921;BME280;63483;47.384;8.860;2023-05-07T03:30:15;94468.22;;;11.81;43.85
74921;BME280;63483;47.384;8.860;2023-05-07T03:32:40;94465.97;;;11.77;43.93
74921;BME280;63483;47.384;8.860;2023-05-07T03:35:06;94460.47;;;11.72;44.31
74921;BME280;63483;47.384;8.860;2023-05-07T03:37:32;94461.03;;;11.61;44.14
74921;BME280;63483;47.384;8.860;2023-05-07T03:39:57;94457.75;;;11.59;44.56
74921;BME280;63483;47.384;8.860;2023-05-07T03:42:23;94458.78;;;11.58;44.51
74921;BME280;63483;47.384;8.860;2023-05-07T03:44:49;94456.16;;;11.58;44.40
74921;BME280;63483;47.384;8.860;2023-05-07T03:47:14;94459.59;;;11.58;44.31
74921;BME280;63483;47.384;8.860;2023-05-07T03:49:39;94454.34;;;11.58;44.48
74921;BME280;63483;47.384;8.860;2023-05-07T03:52:05;94459.78;;;11.57;44.57
74921;BME280;63483;47.384;8.860;2023-05-07T03:54:31;94459.97;;;11.55;44.62
74921;BME280;63483;47.384;8.860;2023-05-07T03:56:56;94457.53;;;11.54;44.34
74921;BME280;63483;47.384;8.860;2023-05-07T03:59:22;94460.53;;;11.51;44.48
74921;BME280;63483;47.384;8.860;2023-05-07T04:01:47;94467.75;;;11.49;44.39
74921;BME280;63483;47.384;8.860;2023-05-07T04:04:14;94471.78;;;11.45;44.35
74921;BME280;63483;47.384;8.860;2023-05-07T04:06:39;94470.53;;;11.40;44.42
74921;BME280;63483;47.384;8.860;2023-05-07T04:09:05;94476.16;;;11.37;44.70
74921;BME280;63483;47.384;8.860;2023-05-07T04:11:30;94474.91;;;11.33;44.46
74921;BME280;63483;47.384;8.860;2023-05-07T04:13:55;94481.53;;;11.29;44.68
74921;BME280;63483;47.384;8.860;2023-05-07T04:16:21;94478.28;;;11.27;44.93
74921;BME280;63483;47.384;8.860;2023-05-07T04:18:46;94478.66;;;11.24;44.93
74921;BME280;63483;47.384;8.860;2023-05-07T04:21:16;94474.41;;;11.23;45.21
74921;BME280;63483;47.384;8.860;2023-05-07T04:23:42;94484.91;;;11.23;45.13
74921;BME280;63483;47.384;8.860;2023-05-07T04:26:07;94488.91;;;11.19;44.98
74921;BME280;63483;47.384;8.860;2023-05-07T04:28:34;94486.91;;;11.21;45.15
74921;BME280;63483;47.384;8.860;2023-05-07T04:30:59;94483.28;;;11.22;45.04
74921;BME280;63483;47.384;8.860;2023-05-07T04:33:24;94490.34;;;11.21;45.00
74921;BME280;63483;47.384;8.860;2023-05-07T04:35:50;94489.34;;;11.22;44.81
74921;BME280;63483;47.384;8.860;2023-05-07T04:38:15;94496.00;;;11.25;44.82
74921;BME280;63483;47.384;8.860;2023-05-07T04:40:41;94495.81;;;11.26;45.02
74921;BME280;63483;47.384;8.860;2023-05-07T04:43:07;94501.25;;;11.25;45.27
74921;BME280;63483;47.384;8.860;2023-05-07T04:45:34;94488.97;;;11.25;45.25
74921;BME280;63483;47.384;8.860;2023-05-07T04:48:00;94496.47;;;11.29;45.32
74921;BME280;63483;47.384;8.860;2023-05-07T04:50:25;94496.28;;;11.30;45.32
74921;BME280;63483;47.384;8.860;2023-05-07T04:52:51;94500.34;;;11.33;45.46
74921;BME280;63483;47.384;8.860;2023-05-07T04:55:17;94493.66;;;11.30;45.58
74921;BME280;63483;47.384;8.860;2023-05-07T04:57:42;94495.00;;;11.26;45.53
74921;BME280;63483;47.384;8.860;2023-05-07T05:00:08;94505.50;;;11.26;45.53
74921;BME280;63483;47.384;8.860;2023-05-07T05:02:36;94505.41;;;11.19;46.16
74921;BME280;63483;47.384;8.860;2023-05-07T05:05:02;94501.00;;;11.20;46.06
74921;BME280;63483;47.384;8.860;2023-05-07T05:07:27;94505.25;;;11.21;46.32
74921;BME280;63483;47.384;8.860;2023-05-07T05:09:53;94509.06;;;11.18;46.34
74921;BME280;63483;47.384;8.860;2023-05-07T05:12:19;94520.81;;;11.22;46.20
74921;BME280;63483;47.384;8.860;2023-05-07T05:14:44;94519.22;;;11.28;46.29
74921;BME280;63483;47.384;8.860;2023-05-07T05:17:09;94513.88;;;11.36;46.45
74921;BME280;63483;47.384;8.860;2023-05-07T05:19:35;94512.91;;;11.44;46.46
74921;BME280;63483;47.384;8.860;2023-05-07T05:22:00;94522.66;;;11.50;45.96
74921;BME280;63483;47.384;8.860;2023-05-07T05:24:29;94517.66;;;11.55;46.17
74921;BME280;63483;47.384;8.860;2023-05-07T05:26:55;94520.28;;;11.55;46.02
74921;BME280;63483;47.384;8.860;2023-05-07T05:29:20;94525.34;;;11.57;45.89
74921;BME280;63483;47.384;8.860;2023-05-07T05:31:45;94526.78;;;11.59;46.17
74921;BME280;63483;47.384;8.860;2023-05-07T05:34:11;94532.44;;;11.63;46.28
74921;BME280;63483;47.384;8.860;2023-05-07T05:36:36;94528.47;;;11.67;46.18
74921;BME280;63483;47.384;8.860;2023-05-07T05:39:01;94528.50;;;11.74;46.81
74921;BME280;63483;47.384;8.860;2023-05-07T05:41:27;94528.56;;;11.81;46.41
74921;BME280;63483;47.384;8.860;2023-05-07T05:43:52;94533.06;;;11.87;46.34
74921;BME280;63483;47.384;8.860;2023-05-07T05:46:17;94526.06;;;11.94;46.56
74921;BME280;63483;47.384;8.860;2023-05-07T05:48:43;94521.03;;;11.99;46.55
74921;BME280;63483;47.384;8.860;2023-05-07T05:51:08;94513.63;;;12.03;46.41
74921;BME280;63483;47.384;8.860;2023-05-07T05:53:33;94518.28;;;12.07;46.36
74921;BME280;63483;47.384;8.860;2023-05-07T05:55:59;94521.31;;;12.11;46.36
74921;BME280;63483;47.384;8.860;2023-05-07T05:58:24;94519.13;;;12.15;46.44
74921;BME280;63483;47.384;8.860;2023-05-07T06:00:49;94518.75;;;12.18;46.61
74921;BME280;63483;47.384;8.860;2023-05-07T06:03:17;94521.59;;;12.23;46.66
74921;BME280;63483;47.384;8.860;2023-05-07T06:05:42;94508.72;;;12.28;46.27
74921;BME280;63483;47.384;8.860;2023-05-07T06:08:08;94508.31;;;12.31;46.62
74921;BME280;63483;47.384;8.860;2023-05-07T06:10:33;94514.81;;;12.35;46.52
74921;BME280;63483;47.384;8.860;2023-05-07T06:12:58;94521.13;;;12.41;46.64
74921;BME280;63483;47.384;8.860;2023-05-07T06:15:24;94525.78;;;12.45;46.52
74921;BME280;63483;47.384;8.860;2023-05-07T06:17:49;94520.75;;;12.51;46.59
74921;BME280;63483;47.384;8.860;2023-05-07T06:20:14;94521.53;;;12.51;46.92
74921;BME280;63483;47.384;8.860;2023-05-07T06:22:40;94526.63;;;12.53;46.60
74921;BME280;63483;47.384;8.860;2023-05-07T06:25:05;94527.84;;;12.57;46.73
74921;BME280;63483;47.384;8.860;2023-05-07T06:27:31;94542.44;;;12.66;46.46
74921;BME280;63483;47.384;8.860;2023-05-07T06:29:56;94541.03;;;12.70;46.67
74921;BME280;63483;47.384;8.860;2023-05-07T06:32:21;94543.47;;;12.72;46.91
74921;BME280;63483;47.384;8.860;2023-05-07T06:34:47;94557.66;;;12.77;46.65
74921;BME280;63483;47.384;8.860;2023-05-07T06:37:12;94559.75;;;12.89;46.69
74921;BME280;63483;47.384;8.860;2023-05-07T06:39:37;94561.19;;;12.98;46.10
74921;BME280;63483;47.384;8.860;2023-05-07T06:42:03;94562.03;;;13.05;45.87
74921;BME280;63483;47.384;8.860;2023-05-07T06:44:30;94566.09;;;13.14;45.10
74921;BME280;63483;47.384;8.860;2023-05-07T06:46:55;94568.56;;;13.23;45.23
74921;BME280;63483;47.384;8.860;2023-05-07T06:49:20;94573.03;;;13.29;46.36
74921;BME280;63483;47.384;8.860;2023-05-07T06:51:46;94575.50;;;13.37;45.69
74921;BME280;63483;47.384;8.860;2023-05-07T06:54:11;94579.56;;;13.46;46.33
74921;BME280;63483;47.384;8.860;2023-05-07T06:56:37;94578.75;;;13.52;46.88
74921;BME280;63483;47.384;8.860;2023-05-07T06:59:02;94572.28;;;13.62;46.84
74921;BME280;63483;47.384;8.860;2023-05-07T07:01:28;94574.75;;;13.70;45.87
74921;BME280;63483;47.384;8.860;2023-05-07T07:03:53;94579.22;;;13.76;46.05
74921;BME280;63483;47.384;8.860;2023-05-07T07:06:19;94568.31;;;13.86;46.06
74921;BME280;63483;47.384;8.860;2023-05-07T07:08:45;94564.22;;;13.90;45.90
74921;BME280;63483;47.384;8.860;2023-05-07T07:11:10;94569.91;;;13.94;45.45
74921;BME280;63483;47.384;8.860;2023-05-07T07:13:36;94567.47;;;13.99;45.49
74921;BME280;63483;47.384;8.860;2023-05-07T07:16:01;94571.31;;;14.03;45.60
74921;BME280;63483;47.384;8.860;2023-05-07T07:18:27;94566.28;;;14.08;45.52
74921;BME280;63483;47.384;8.860;2023-05-07T07:20:52;94577.78;;;14.14;45.81
74921;BME280;63483;47.384;8.860;2023-05-07T07:23:18;94581.44;;;14.19;45.52
74921;BME280;63483;47.384;8.860;2023-05-07T07:25:43;94582.06;;;14.21;45.58
74921;BME280;63483;47.384;8.860;2023-05-07T07:28:09;94587.69;;;14.32;45.65
74921;BME280;63483;47.384;8.860;2023-05-07T07:30:35;94578.38;;;14.36;45.16
74921;BME280;63483;47.384;8.860;2023-05-07T07:33:01;94589.31;;;14.46;44.96
74921;BME280;63483;47.384;8.860;2023-05-07T07:35:29;94581.22;;;14.54;43.33
74921;BME280;63483;47.384;8.860;2023-05-07T07:37:54;94588.91;;;14.63;43.50
74921;BME280;63483;47.384;8.860;2023-05-07T07:40:19;94588.09;;;14.69;43.39
74921;BME280;63483;47.384;8.860;2023-05-07T07:42:45;94588.84;;;14.76;42.78
74921;BME280;63483;47.384;8.860;2023-05-07T07:45:10;94593.31;;;14.82;42.84
74921;BME280;63483;47.384;8.860;2023-05-07T07:47:35;94596.13;;;14.87;42.55
74921;BME280;63483;47.384;8.860;2023-05-07T07:50:01;94597.34;;;14.91;41.71
74921;BME280;63483;47.384;8.860;2023-05-07T07:52:26;94600.16;;;14.97;41.54
74921;BME280;63483;47.384;8.860;2023-05-07T07:54:51;94599.31;;;15.03;42.15
74921;BME280;63483;47.384;8.860;2023-05-07T07:57:17;94595.06;;;15.02;41.78
74921;BME280;63483;47.384;8.860;2023-05-07T07:59:42;94598.66;;;15.14;42.35
74921;BME280;63483;47.384;8.860;2023-05-07T08:02:08;94593.16;;;15.22;42.08
74921;BME280;63483;47.384;8.860;2023-05-07T08:04:33;94599.03;;;15.31;42.40
74921;BME280;63483;47.384;8.860;2023-05-07T08:06:59;94597.78;;;15.40;41.92
74921;BME280;63483;47.384;8.860;2023-05-07T08:09:24;94604.84;;;15.47;41.62
74921;BME280;63483;47.384;8.860;2023-05-07T08:11:50;94603.19;;;15.52;41.39
74921;BME280;63483;47.384;8.860;2023-05-07T08:14:15;94599.28;;;15.61;41.84
74921;BME280;63483;47.384;8.860;2023-05-07T08:16:41;94591.94;;;15.63;41.22
74921;BME280;63483;47.384;8.860;2023-05-07T08:19:06;94595.53;;;15.76;41.03
74921;BME280;63483;47.384;8.860;2023-05-07T08:21:31;94603.78;;;15.86;40.68
74921;BME280;63483;47.384;8.860;2023-05-07T08:23:57;94600.88;;;15.94;40.42
74921;BME280;63483;47.384;8.860;2023-05-07T08:26:23;94598.19;;;16.01;40.41
74921;BME280;63483;47.384;8.860;2023-05-07T08:28:49;94602.41;;;16.09;40.75
74921;BME280;63483;47.384;8.860;2023-05-07T08:31:14;94602.75;;;16.19;41.24
74921;BME280;63483;47.384;8.860;2023-05-07T08:33:39;94601.88;;;16.25;39.86
74921;BME280;63483;47.384;8.860;2023-05-07T08:36:05;94600.00;;;16.32;40.43
74921;BME280;63483;47.384;8.860;2023-05-07T08:38:31;94601.78;;;16.39;40.82
74921;BME280;63483;47.384;8.860;2023-05-07T08:40:56;94604.16;;;16.47;40.41
74921;BME280;63483;47.384;8.860;2023-05-07T08:43:23;94602.84;;;16.56;40.31
74921;BME280;63483;47.384;8.860;2023-05-07T08:45:53;94604.59;;;16.62;39.10
74921;BME280;63483;47.384;8.860;2023-05-07T08:48:22;94607.19;;;16.69;38.78
74921;BME280;63483;47.384;8.860;2023-05-07T08:50:48;94601.38;;;16.79;39.65
74921;BME280;63483;47.384;8.860;2023-05-07T08:53:16;94603.78;;;16.87;39.27
74921;BME280;63483;47.384;8.860;2023-05-07T08:55:42;94604.28;;;16.96;39.85
74921;BME280;63483;47.384;8.860;2023-05-07T08:58:07;94608.03;;;17.07;39.65
74921;BME280;63483;47.384;8.860;2023-05-07T09:00:33;94616.13;;;17.12;38.63
74921;BME280;63483;47.384;8.860;2023-05-07T09:03:00;94610.22;;;17.10;37.19
74921;BME280;63483;47.384;8.860;2023-05-07T09:05:25;94615.06;;;17.13;37.98
74921;BME280;63483;47.384;8.860;2023-05-07T09:07:51;94608.75;;;17.14;37.72
74921;BME280;63483;47.384;8.860;2023-05-07T09:10:16;94609.94;;;17.18;38.18
74921;BME280;63483;47.384;8.860;2023-05-07T09:12:41;94594.50;;;17.15;37.79
74921;BME280;63483;47.384;8.860;2023-05-07T09:15:07;94600.81;;;17.14;37.60
74921;BME280;63483;47.384;8.860;2023-05-07T09:17:33;94597.28;;;17.20;38.32
74921;BME280;63483;47.384;8.860;2023-05-07T09:20:05;94599.03;;;17.26;39.06
74921;BME280;63483;47.384;8.860;2023-05-07T09:22:36;94599.84;;;17.27;38.95
74921;BME280;63483;47.384;8.860;2023-05-07T09:25:02;94593.88;;;17.31;38.46
74921;BME280;63483;47.384;8.860;2023-05-07T09:27:27;94601.94;;;17.36;38.86
74921;BME280;63483;47.384;8.860;2023-05-07T09:29:53;94594.16;;;17.42;38.68
74921;BME280;63483;47.384;8.860;2023-05-07T09:32:18;94596.94;;;17.47;37.87
74921;BME280;63483;47.384;8.860;2023-05-07T09:34:43;94590.97;;;17.51;38.96
74921;BME280;63483;47.384;8.860;2023-05-07T09:37:12;94591.34;;;17.55;39.05
74921;BME280;63483;47.384;8.860;2023-05-07T09:42:06;94584.47;;;17.66;39.02
74921;BME280;63483;47.384;8.860;2023-05-07T09:44:32;94576.69;;;17.71;38.63
74921;BME280;63483;47.384;8.860;2023-05-07T09:47:00;94574.94;;;17.77;38.10
74921;BME280;63483;47.384;8.860;2023-05-07T09:49:29;94582.81;;;17.83;38.93
74921;BME280;63483;47.384;8.860;2023-05-07T09:51:55;94575.13;;;17.94;38.52
74921;BME280;63483;47.384;8.860;2023-05-07T09:54:22;94580.28;;;18.00;38.83
74921;BME280;63483;47.384;8.860;2023-05-07T09:56:51;94575.47;;;18.09;38.67
74921;BME280;63483;47.384;8.860;2023-05-07T09:59:17;94571.78;;;18.10;39.06
74921;BME280;63483;47.384;8.860;2023-05-07T10:01:44;94568.59;;;18.20;38.88
74921;BME280;63483;47.384;8.860;2023-05-07T10:04:13;94569.25;;;18.27;37.64
74921;BME280;63483;47.384;8.860;2023-05-07T10:06:40;94573.69;;;18.33;37.18
74921;BME280;63483;47.384;8.860;2023-05-07T10:09:06;94562.63;;;18.36;35.91
74921;BME280;63483;47.384;8.860;2023-05-07T10:11:35;94567.56;;;18.33;35.17
74921;BME280;63483;47.384;8.860;2023-05-07T10:14:01;94561.56;;;18.37;36.09
74921;BME280;63483;47.384;8.860;2023-05-07T10:16:31;94560.06;;;18.41;35.33
74921;BME280;63483;47.384;8.860;2023-05-07T10:18:58;94561.31;;;18.51;35.09
74921;BME280;63483;47.384;8.860;2023-05-07T10:21:26;94552.94;;;18.54;37.55
74921;BME280;63483;47.384;8.860;2023-05-07T10:24:23;94555.56;;;18.66;37.22
74921;BME280;63483;47.384;8.860;2023-05-07T10:26:51;94552.56;;;18.62;36.63
74921;BME280;63483;47.384;8.860;2023-05-07T10:34:40;94547.81;;;18.88;36.63
74921;BME280;63483;47.384;8.860;2023-05-07T10:37:07;94543.06;;;18.90;36.89
74921;BME280;63483;47.384;8.860;2023-05-07T10:39:32;94547.13;;;18.81;36.56
74921;BME280;63483;47.384;8.860;2023-05-07T10:42:10;94545.72;;;18.90;37.32
74921;BME280;63483;47.384;8.860;2023-05-07T10:44:36;94541.78;;;18.92;36.97
74921;BME280;63483;47.384;8.860;2023-05-07T10:47:13;94536.72;;;18.91;37.32
74921;BME280;63483;47.384;8.860;2023-05-07T10:52:18;94532.06;;;18.98;37.61
74921;BME280;63483;47.384;8.860;2023-05-07T10:54:45;94529.00;;;19.01;36.43
74921;BME280;63483;47.384;8.860;2023-05-07T10:57:43;94525.38;;;19.07;37.29
74921;BME280;63483;47.384;8.860;2023-05-07T11:05:29;94521.22;;;19.11;37.25
74921;BME280;63483;47.384;8.860;2023-05-07T11:10:21;94513.81;;;19.14;37.38
74921;BME280;63483;47.384;8.860;2023-05-07T11:12:48;94516.09;;;19.22;37.00
74921;BME280;63483;47.384;8.860;2023-05-07T11:15:15;94502.91;;;19.27;36.65
74921;BME280;63483;47.384;8.860;2023-05-07T11:17:59;94505.19;;;19.35;36.39
74921;BME280;63483;47.384;8.860;2023-05-07T11:26:04;94501.19;;;19.50;37.19
74921;BME280;63483;47.384;8.860;2023-05-07T11:28:30;94499.41;;;19.55;37.33
74921;BME280;63483;47.384;8.860;2023-05-07T11:30:56;94500.88;;;19.63;37.04
74921;BME280;63483;47.384;8.860;2023-05-07T11:33:23;94498.34;;;19.68;36.54
74921;BME280;63483;47.384;8.860;2023-05-07T11:35:50;94492.53;;;19.71;35.76
74921;BME280;63483;47.384;8.860;2023-05-07T11:38:18;94494.16;;;19.72;36.51
74921;BME280;63483;47.384;8.860;2023-05-07T11:40:55;94486.75;;;19.74;35.41
74921;BME280;63483;47.384;8.860;2023-05-07T11:43:21;94494.22;;;19.77;34.67
74921;BME280;63483;47.384;8.860;2023-05-07T11:45:47;94488.16;;;19.65;35.15
74921;BME280;63483;47.384;8.860;2023-05-07T11:48:13;94484.63;;;19.59;36.31
74921;BME280;63483;47.384;8.860;2023-05-07T11:51:00;94481.72;;;19.61;35.23
74921;BME280;63483;47.384;8.860;2023-05-07T11:53:26;94477.97;;;19.28;35.27
74921;BME280;63483;47.384;8.860;2023-05-07T11:55:53;94480.22;;;19.36;36.42
74921;BME280;63483;47.384;8.860;2023-05-07T11:58:23;94482.34;;;19.51;34.86
74921;BME280;63483;47.384;8.860;2023-05-07T12:00:54;94476.06;;;19.57;33.94
74921;BME280;63483;47.384;8.860;2023-05-07T12:03:20;94484.44;;;19.66;34.36
74921;BME280;63483;47.384;8.860;2023-05-07T12:05:46;94481.09;;;19.71;33.85
74921;BME280;63483;47.384;8.860;2023-05-07T12:08:19;94486.25;;;19.77;35.43
74921;BME280;63483;47.384;8.860;2023-05-07T12:10:46;94487.06;;;19.95;35.15
74921;BME280;63483;47.384;8.860;2023-05-07T12:13:20;94478.66;;;20.03;35.33
74921;BME280;63483;47.384;8.860;2023-05-07T12:15:46;94485.44;;;20.11;35.16
74921;BME280;63483;47.384;8.860;2023-05-07T12:18:12;94484.13;;;20.13;34.84
74921;BME280;63483;47.384;8.860;2023-05-07T12:20:38;94477.84;;;20.20;34.79
74921;BME280;63483;47.384;8.860;2023-05-07T12:23:04;94474.72;;;20.23;34.40
74921;BME280;63483;47.384;8.860;2023-05-07T12:25:31;94476.38;;;20.29;34.29
74921;BME280;63483;47.384;8.860;2023-05-07T12:27:57;94469.78;;;20.31;33.82
74921;BME280;63483;47.384;8.860;2023-05-07T12:30:24;94474.28;;;20.31;33.93
74921;BME280;63483;47.384;8.860;2023-05-07T12:32:53;94471.03;;;20.07;33.56
74921;BME280;63483;47.384;8.860;2023-05-07T12:35:47;94471.75;;;20.02;33.48
74921;BME280;63483;47.384;8.860;2023-05-07T12:38:13;94475.94;;;19.98;33.00
74921;BME280;63483;47.384;8.860;2023-05-07T12:40:40;94474.41;;;19.85;34.29
74921;BME280;63483;47.384;8.860;2023-05-07T12:43:07;94485.44;;;19.94;34.65
74921;BME280;63483;47.384;8.860;2023-05-07T12:45:37;94479.25;;;20.05;33.86
74921;BME280;63483;47.384;8.860;2023-05-07T12:48:04;94476.91;;;19.92;33.90
74921;BME280;63483;47.384;8.860;2023-05-07T12:50:33;94474.75;;;19.89;34.39
74921;BME280;63483;47.384;8.860;2023-05-07T12:52:59;94464.03;;;19.84;35.04
74921;BME280;63483;47.384;8.860;2023-05-07T12:55:24;94467.47;;;20.01;35.31
74921;BME280;63483;47.384;8.860;2023-05-07T12:57:50;94460.44;;;20.12;35.84
74921;BME280;63483;47.384;8.860;2023-05-07T13:00:17;94462.63;;;20.15;35.56
74921;BME280;63483;47.384;8.860;2023-05-07T13:02:43;94473.81;;;20.34;34.07
74921;BME280;63483;47.384;8.860;2023-05-07T13:05:12;94472.16;;;19.94;35.15
74921;BME280;63483;47.384;8.860;2023-05-07T13:07:37;94472.31;;;19.70;35.80
74921;BME280;63483;47.384;8.860;2023-05-07T13:10:04;94483.47;;;19.38;36.07
74921;BME280;63483;47.384;8.860;2023-05-07T13:12:29;94479.69;;;19.05;37.39
74921;BME280;63483;47.384;8.860;2023-05-07T13:14:55;94472.31;;;18.95;37.14
74921;BME280;63483;47.384;8.860;2023-05-07T13:17:20;94477.94;;;18.70;37.74
74921;BME280;63483;47.384;8.860;2023-05-07T13:19:45;94478.00;;;18.47;38.05